Time;durP1;ratioP1;P1;durP2;ratioP2;P2;SDS_P1;SDS_P2;PMS_P1;PMS_P2;Temp;Humidity;BMP_temperature;BMP_pressure;BME280_temperature;BME280_humidity;BME280_pressure;Samples;Min_cycle;Max_cycle;Signal;HPM_P1;HPM_P2
2022/11/12 00:01:17;;;;;;;14.63;7.63;;;6.70;99.90;;;;;;6184393;23;20024;-85
2022/11/12 00:03:43;;;;;;;11.25;7.13;;;6.70;99.90;;;;;;6182742;23;20486;-85
2022/11/12 00:06:09;;;;;;;12.38;7.88;;;6.70;99.90;;;;;;6209280;23;20009;-84
2022/11/12 00:08:35;;;;;;;13.32;8.07;;;6.70;99.90;;;;;;6209511;23;20120;-85
2022/11/12 00:11:01;;;;;;;13.52;8.05;;;6.60;99.90;;;;;;6184755;23;20030;-85
2022/11/12 00:13:27;;;;;;;12.98;7.68;;;6.60;99.90;;;;;;6212805;23;20008;-85
2022/11/12 00:15:52;;;;;;;12.90;7.55;;;6.60;99.90;;;;;;6185210;23;20472;-85
2022/11/12 00:18:19;;;;;;;11.85;7.65;;;6.60;99.90;;;;;;6213489;23;20048;-85
2022/11/12 00:20:44;;;;;;;12.32;7.85;;;6.60;99.90;;;;;;6212230;23;20083;-86
2022/11/12 00:23:10;;;;;;;14.30;8.90;;;6.60;99.90;;;;;;6186312;23;20048;-85
2022/11/12 00:25:36;;;;;;;14.95;8.20;;;6.60;99.90;;;;;;6185623;23;20107;-85
2022/11/12 00:28:06;;;;;;;15.70;7.70;;;6.60;99.90;;;;;;6162071;23;20017;-85
2022/11/12 00:30:32;;;;;;;15.35;8.48;;;6.50;99.90;;;;;;6213297;23;20012;-84
2022/11/12 00:33:01;;;;;;;12.57;7.93;;;6.50;99.90;;;;;;6185840;23;20400;-84
2022/11/12 00:35:27;;;;;;;13.40;8.40;;;6.80;99.90;;;;;;6212626;23;20040;-84
2022/11/12 00:37:56;;;;;;;14.98;8.20;;;6.50;99.90;;;;;;6186490;23;20349;-84
2022/11/12 00:40:22;;;;;;;14.27;8.95;;;6.50;99.90;;;;;;6213009;23;20017;-85
2022/11/12 00:42:51;;;;;;;13.93;8.00;;;6.50;99.90;;;;;;6186296;23;20024;-85
2022/11/12 00:45:17;;;;;;;14.88;9.07;;;6.50;99.90;;;;;;6185582;23;20008;-85
2022/11/12 00:47:42;;;;;;;15.20;8.32;;;6.50;99.90;;;;;;6186721;23;20008;-85
2022/11/12 00:50:08;;;;;;;16.88;9.57;;;6.40;99.90;;;;;;6187192;23;20092;-85
2022/11/12 00:52:34;;;;;;;22.55;9.57;;;6.40;99.90;;;;;;6214890;23;20012;-85
2022/11/12 00:55:00;;;;;;;17.08;9.60;;;6.50;99.90;;;;;;6162501;23;20487;-85
2022/11/12 00:57:26;;;;;;;15.60;10.30;;;6.50;99.90;;;;;;6215534;23;20008;-85
2022/11/12 00:59:51;;;;;;;13.38;8.73;;;6.50;99.90;;;;;;6214727;23;20059;-84
2022/11/12 01:02:19;;;;;;;17.08;10.13;;;6.50;99.90;;;;;;6187488;23;20062;-85
2022/11/12 01:04:45;;;;;;;15.40;9.35;;;6.50;99.90;;;;;;6213710;23;20070;-85
2022/11/12 01:07:10;;;;;;;16.20;9.82;;;6.50;99.90;;;;;;6214187;23;20096;-85
2022/11/12 01:09:36;;;;;;;15.55;9.82;;;6.50;99.90;;;;;;6187114;23;20021;-85
2022/11/12 01:12:02;;;;;;;18.83;9.63;;;6.50;99.90;;;;;;6188683;23;20059;-85
2022/11/12 01:14:27;;;;;;;16.15;9.25;;;6.50;99.90;;;;;;6187890;23;20484;-85
2022/11/12 01:16:53;;;;;;;19.90;10.65;;;6.70;99.90;;;;;;6214569;23;20382;-85
2022/11/12 01:19:19;;;;;;;16.35;10.85;;;6.50;99.90;;;;;;6187510;23;20460;-85
2022/11/12 01:21:44;;;;;;;17.90;11.30;;;6.50;99.90;;;;;;6214624;23;20012;-85
2022/11/12 01:24:11;;;;;;;18.73;11.23;;;6.50;99.90;;;;;;6214688;23;20445;-85
2022/11/12 01:26:37;;;;;;;17.08;10.18;;;6.20;99.90;;;;;;6187134;23;20083;-85
2022/11/12 01:29:04;;;;;;;17.08;10.15;;;6.50;99.90;;;;;;6214972;23;20051;-85
2022/11/12 01:31:37;;;;;;;17.17;9.95;;;6.50;99.90;;;;;;6214394;23;20038;-85
2022/11/12 01:34:06;;;;;;;19.63;11.27;;;6.40;99.90;;;;;;6185981;23;20020;-83
2022/11/12 01:36:37;;;;;;;17.50;11.13;;;6.40;99.90;;;;;;6213943;23;20013;-85
2022/11/12 01:39:06;;;;;;;18.88;11.35;;;6.40;99.90;;;;;;6213993;23;20019;-84
2022/11/12 01:41:34;;;;;;;18.02;11.05;;;6.30;99.90;;;;;;6186955;23;20013;-85
2022/11/12 01:44:22;;;;;;;22.77;10.40;;;6.30;99.90;;;;;;6213622;23;20052;-85
2022/11/12 01:47:21;;;;;;;18.42;10.65;;;6.30;99.90;;;;;;6186541;23;20025;-85
2022/11/12 01:49:57;;;;;;;22.17;10.95;;;6.30;99.90;;;;;;6213117;23;20017;-85
2022/11/12 01:52:38;;;;;;;15.82;10.50;;;6.30;99.90;;;;;;6213815;23;20546;-85
2022/11/12 01:55:08;;;;;;;15.75;9.80;;;6.30;99.90;;;;;;6187834;23;20040;-85
2022/11/12 01:57:40;;;;;;;16.52;10.68;;;6.20;99.90;;;;;;6213991;23;20063;-85
2022/11/12 02:00:10;;;;;;;15.82;10.35;;;6.20;99.90;;;;;;6214555;23;20030;-85
2022/11/12 02:02:37;;;;;;;19.30;11.80;;;6.20;99.90;;;;;;6186314;23;20067;-85
2022/11/12 02:05:09;;;;;;;17.60;10.48;;;6.20;99.90;;;;;;6186158;23;20062;-85
2022/11/12 02:07:37;;;;;;;18.48;10.93;;;6.20;99.90;;;;;;6213525;23;20055;-85
2022/11/12 02:10:04;;;;;;;17.63;11.40;;;6.10;99.90;;;;;;6213973;23;20013;-85
2022/11/12 02:15:15;;;;;;;16.35;11.02;;;6.10;99.90;;;;;;6214239;23;20067;-85
2022/11/12 02:17:40;;;;;;;19.13;11.63;;;6.10;99.90;;;;;;6214538;23;20009;-85
2022/11/12 02:20:11;;;;;;;18.27;12.13;;;6.10;99.90;;;;;;6187779;23;20379;-85
2022/11/12 02:22:37;;;;;;;18.10;11.90;;;6.10;99.90;;;;;;6186287;23;20056;-85
2022/11/12 02:25:02;;;;;;;19.98;11.73;;;6.10;99.90;;;;;;6163186;23;20020;-84
2022/11/12 02:27:28;;;;;;;17.80;11.60;;;6.10;99.90;;;;;;6187521;23;20020;-85
2022/11/12 02:29:54;;;;;;;19.27;12.18;;;6.10;99.90;;;;;;6187838;23;20017;-85
2022/11/12 02:32:20;;;;;;;18.70;11.88;;;6.10;99.90;;;;;;6213458;23;20067;-85
2022/11/12 02:34:45;;;;;;;16.77;11.40;;;6.00;99.90;;;;;;6214189;23;20088;-85
2022/11/12 02:37:11;;;;;;;16.75;10.75;;;6.00;99.90;;;;;;6186392;23;20013;-85
2022/11/12 02:39:36;;;;;;;16.33;11.02;;;5.90;99.90;;;;;;6213617;23;20008;-85
2022/11/12 02:42:02;;;;;;;19.85;11.90;;;5.90;99.90;;;;;;6213883;23;20024;-85
2022/11/12 02:44:29;;;;;;;19.17;12.35;;;5.90;99.90;;;;;;6213687;23;20016;-85
2022/11/12 02:46:55;;;;;;;18.17;12.00;;;5.90;99.90;;;;;;6186309;23;20017;-85
2022/11/12 02:49:20;;;;;;;23.65;12.77;;;5.90;99.90;;;;;;6187142;23;20179;-85
2022/11/12 02:51:46;;;;;;;19.90;11.98;;;5.90;99.90;;;;;;6162420;23;20023;-85
2022/11/12 02:54:12;;;;;;;21.58;12.20;;;5.90;99.90;;;;;;6187437;23;20017;-85
2022/11/12 02:56:37;;;;;;;20.73;12.82;;;5.80;99.90;;;;;;6213273;23;20012;-85
2022/11/12 02:59:03;;;;;;;19.67;11.68;;;5.80;99.90;;;;;;6187123;23;20017;-84
2022/11/12 03:01:28;;;;;;;21.17;11.82;;;5.80;99.90;;;;;;6186647;23;20092;-84
2022/11/12 03:03:54;;;;;;;21.52;12.63;;;5.70;99.90;;;;;;6213147;23;20422;-83
2022/11/12 03:06:20;;;;;;;20.92;12.95;;;5.80;99.90;;;;;;6212851;23;20023;-85
2022/11/12 03:08:45;;;;;;;18.90;11.85;;;5.80;99.90;;;;;;6186411;23;20329;-85
2022/11/12 03:11:14;;;;;;;21.48;13.30;;;5.80;99.90;;;;;;6186911;23;20021;-85
2022/11/12 03:13:40;;;;;;;18.88;12.80;;;5.70;99.90;;;;;;6211673;23;20445;-85
2022/11/12 03:16:06;;;;;;;21.50;13.23;;;5.80;99.90;;;;;;6185982;23;20021;-85
2022/11/12 03:18:32;;;;;;;17.63;12.90;;;5.70;99.90;;;;;;6213631;23;20345;-84
2022/11/12 03:20:57;;;;;;;18.50;12.45;;;5.70;99.90;;;;;;6186134;23;20023;-85
2022/11/12 03:23:25;;;;;;;20.48;13.02;;;5.70;99.90;;;;;;6184933;23;20017;-85
2022/11/12 03:25:51;;;;;;;20.50;13.05;;;5.70;99.90;;;;;;6184323;23;20021;-85
2022/11/12 03:28:17;;;;;;;22.65;14.07;;;5.70;99.90;;;;;;6209925;23;20012;-84
2022/11/12 03:30:43;;;;;;;19.13;11.85;;;5.60;99.90;;;;;;6212938;23;20039;-85
2022/11/12 03:33:11;;;;;;;21.95;13.27;;;5.60;99.90;;;;;;6212590;23;20024;-84
2022/11/12 03:35:37;;;;;;;20.55;12.73;;;5.60;99.90;;;;;;6212302;23;20017;-85
2022/11/12 03:38:04;;;;;;;17.58;11.88;;;5.60;99.90;;;;;;6161929;23;20013;-84
2022/11/12 03:40:31;;;;;;;17.67;12.38;;;5.50;99.90;;;;;;6185355;23;20050;-85
2022/11/12 03:42:57;;;;;;;18.45;11.98;;;5.60;99.90;;;;;;6161840;23;20467;-85
2022/11/12 03:45:25;;;;;;;20.17;12.82;;;5.50;99.90;;;;;;6186368;23;20024;-84
2022/11/12 03:47:53;;;;;;;19.50;12.88;;;5.50;99.90;;;;;;6186362;23;20009;-85
2022/11/12 03:50:20;;;;;;;17.27;11.38;;;5.50;99.90;;;;;;6213006;23;20500;-85
2022/11/12 03:52:48;;;;;;;20.42;12.45;;;5.50;99.90;;;;;;6161132;23;20008;-85
2022/11/12 03:55:15;;;;;;;18.40;12.10;;;5.50;99.90;;;;;;6212952;23;20015;-84
2022/11/12 03:57:41;;;;;;;19.38;12.25;;;5.50;99.90;;;;;;6186679;23;20087;-85
2022/11/12 04:00:08;;;;;;;18.40;12.70;;;5.50;99.90;;;;;;6184091;23;20047;-84
2022/11/12 04:02:33;;;;;;;19.08;12.45;;;5.40;99.90;;;;;;6183278;23;20020;-84
2022/11/12 04:10:29;;;;;;;17.77;11.93;;;5.40;99.90;;;;;;6183738;23;20091;-83
2022/11/12 04:15:40;;;;;;;21.83;11.75;;;5.30;99.90;;;;;;6213526;23;20027;-85
2022/11/12 04:23:33;;;;;;;17.35;11.13;;;5.20;99.90;;;;;;6186570;23;20095;-85
2022/11/12 04:30:14;;;;;;;18.55;12.45;;;5.10;99.90;;;;;;6212026;23;20024;-85
2022/11/12 04:31:29;;;;;;;16.67;11.23;;;5.10;99.90;;;;;;6213491;23;20047;-84
2022/11/12 04:34:27;;;;;;;18.90;11.38;;;5.10;99.90;;;;;;6186586;23;20044;-84
2022/11/12 04:36:40;;;;;;;17.20;11.25;;;5.10;99.90;;;;;;6214045;23;20021;-85
2022/11/12 04:39:06;;;;;;;17.35;11.95;;;5.10;99.90;;;;;;6213609;23;20083;-85
2022/11/12 04:47:00;;;;;;;15.82;11.10;;;5.00;99.90;;;;;;6212995;23;20017;-84
2022/11/12 04:49:25;;;;;;;16.85;11.00;;;5.00;99.90;;;;;;6187044;23;20012;-84
2022/11/12 04:52:06;;;;;;;17.42;10.85;;;5.00;99.90;;;;;;6213781;23;20473;-85
2022/11/12 04:54:32;;;;;;;16.08;10.35;;;5.00;99.90;;;;;;6187643;23;20024;-84
2022/11/12 04:56:59;;;;;;;18.55;11.10;;;4.90;99.90;;;;;;6212535;23;20024;-84
2022/11/12 04:59:25;;;;;;;13.70;9.77;;;5.00;99.90;;;;;;6186900;23;20020;-84
2022/11/12 05:01:51;;;;;;;14.27;9.52;;;4.90;99.90;;;;;;6186316;23;20012;-84
2022/11/12 05:04:16;;;;;;;13.45;10.02;;;4.90;99.90;;;;;;6214531;23;20012;-84
2022/11/12 05:06:51;;;;;;;14.70;10.27;;;4.90;99.90;;;;;;6187252;23;20612;-85
2022/11/12 05:09:19;;;;;;;16.20;9.95;;;4.80;99.90;;;;;;6187127;23;20108;-85
2022/11/12 05:11:44;;;;;;;15.60;10.05;;;4.80;99.90;;;;;;6186398;23;20013;-85
2022/11/12 05:14:10;;;;;;;16.50;10.60;;;4.70;99.90;;;;;;6187218;23;20015;-85
2022/11/12 05:16:36;;;;;;;18.30;11.45;;;4.80;99.90;;;;;;6187816;23;20067;-85
2022/11/12 05:19:02;;;;;;;22.02;13.85;;;4.80;99.90;;;;;;6162596;23;20326;-85
2022/11/12 05:24:12;;;;;;;24.55;13.75;;;4.80;99.90;;;;;;6186647;23;20087;-85
2022/11/12 05:26:37;;;;;;;19.90;13.90;;;4.90;99.90;;;;;;6186154;23;20099;-85
2022/11/12 05:29:03;;;;;;;22.15;12.98;;;4.90;99.90;;;;;;6212906;23;20009;-85
2022/11/12 05:31:29;;;;;;;19.60;12.93;;;4.90;99.90;;;;;;6212308;23;20009;-85
2022/11/12 05:33:55;;;;;;;22.20;14.98;;;4.90;99.90;;;;;;6186615;23;20031;-83
2022/11/12 05:36:20;;;;;;;21.83;15.77;;;4.90;99.90;;;;;;6188373;23;20017;-85
2022/11/12 05:38:46;;;;;;;23.05;14.70;;;5.00;99.90;;;;;;6188378;23;20016;-84
2022/11/12 05:41:12;;;;;;;21.40;14.77;;;5.00;99.90;;;;;;6162147;23;20025;-85
2022/11/12 05:43:38;;;;;;;21.27;14.75;;;5.10;99.90;;;;;;6189095;23;20013;-85
2022/11/12 05:46:04;;;;;;;23.70;14.73;;;5.00;99.90;;;;;;6215577;23;20087;-85
2022/11/12 05:48:30;;;;;;;22.70;13.88;;;5.10;99.90;;;;;;6215852;23;20066;-85
2022/11/12 05:50:55;;;;;;;22.88;14.50;;;5.10;99.90;;;;;;6188289;23;20350;-84
2022/11/12 05:53:21;;;;;;;24.08;15.07;;;5.10;99.90;;;;;;6215780;23;20028;-85
2022/11/12 05:55:47;;;;;;;22.48;13.80;;;5.10;99.90;;;;;;6215208;23;20008;-84
2022/11/12 05:58:13;;;;;;;26.38;14.45;;;5.10;99.90;;;;;;6189187;23;20087;-84
2022/11/12 06:00:38;;;;;;;19.42;13.40;;;5.10;99.90;;;;;;6214697;23;20012;-85
2022/11/12 06:03:05;;;;;;;24.40;14.13;;;5.00;99.90;;;;;;6215074;23;20329;-85
2022/11/12 06:05:32;;;;;;;18.70;13.02;;;5.00;99.90;;;;;;6214805;23;20023;-85
2022/11/12 06:07:58;;;;;;;20.10;11.82;;;5.00;99.90;;;;;;6187636;23;20017;-85
2022/11/12 06:10:24;;;;;;;20.05;13.38;;;5.00;99.90;;;;;;6213918;23;20482;-84
2022/11/12 06:12:49;;;;;;;20.30;12.70;;;5.00;99.90;;;;;;6163818;23;20012;-84
2022/11/12 06:15:15;;;;;;;19.55;12.05;;;5.00;99.90;;;;;;6215430;23;20027;-84
2022/11/12 06:17:41;;;;;;;24.13;13.25;;;5.00;99.90;;;;;;6215295;23;20017;-84
2022/11/12 06:20:07;;;;;;;20.05;13.02;;;5.00;99.90;;;;;;6214598;23;20008;-84
2022/11/12 06:22:33;;;;;;;17.73;12.27;;;5.00;99.90;;;;;;6161949;23;20095;-85
2022/11/12 06:24:58;;;;;;;18.90;12.27;;;5.00;99.90;;;;;;6213973;23;20066;-84
2022/11/12 06:27:24;;;;;;;19.08;12.50;;;5.00;99.90;;;;;;6216146;23;20032;-85
2022/11/12 06:29:50;;;;;;;22.10;12.05;;;4.90;99.90;;;;;;6212539;23;20019;-85
2022/11/12 06:32:15;;;;;;;18.00;12.10;;;4.90;99.90;;;;;;6214055;23;20040;-85
2022/11/12 06:34:41;;;;;;;19.98;12.68;;;4.90;99.90;;;;;;6187561;23;20016;-84
2022/11/12 06:37:07;;;;;;;19.33;12.90;;;4.90;99.90;;;;;;6187884;23;20051;-85
2022/11/12 06:39:32;;;;;;;17.45;12.10;;;4.90;99.90;;;;;;6214120;23;20020;-84
2022/11/12 06:41:58;;;;;;;17.65;11.48;;;4.90;99.90;;;;;;6186820;23;20063;-85
2022/11/12 06:44:24;;;;;;;24.45;15.77;;;4.80;99.90;;;;;;6187436;23;20441;-84
2022/11/12 06:46:49;;;;;;;25.20;15.68;;;4.80;99.90;;;;;;6214137;23;20012;-84
2022/11/12 06:49:15;;;;;;;20.05;13.80;;;4.80;99.90;;;;;;6214151;23;20342;-85
2022/11/12 06:51:41;;;;;;;21.33;13.70;;;4.80;99.90;;;;;;6185765;23;20025;-84
2022/11/12 06:54:06;;;;;;;18.48;12.73;;;4.80;99.90;;;;;;6213079;23;20094;-84
2022/11/12 06:56:32;;;;;;;17.50;12.35;;;4.80;99.90;;;;;;6212935;23;20617;-85
2022/11/12 06:58:58;;;;;;;16.98;11.43;;;4.80;99.90;;;;;;6212980;23;20012;-85
2022/11/12 07:01:23;;;;;;;19.67;13.95;;;4.80;99.90;;;;;;6187392;23;20009;-85
2022/11/12 07:03:53;;;;;;;23.42;15.88;;;4.90;99.90;;;;;;6186125;23;20449;-84
2022/11/12 07:06:19;;;;;;;19.33;14.40;;;4.90;99.90;;;;;;6185347;23;20020;-85
2022/11/12 07:08:49;;;;;;;25.10;15.85;;;5.00;99.90;;;;;;6184777;23;20023;-85
2022/11/12 07:11:16;;;;;;;20.35;14.35;;;5.10;99.90;;;;;;6184178;23;20020;-85
2022/11/12 07:13:46;;;;;;;21.10;13.95;;;5.20;99.90;;;;;;6211327;23;20088;-85
2022/11/12 07:16:17;;;;;;;25.38;14.07;;;5.30;99.90;;;;;;6160340;23;20551;-85
2022/11/12 07:18:44;;;;;;;23.83;12.90;;;5.30;99.90;;;;;;6186106;23;20059;-85
2022/11/12 07:21:12;;;;;;;34.78;13.50;;;5.40;99.90;;;;;;6211049;23;20433;-86
2022/11/12 07:23:38;;;;;;;20.98;13.77;;;5.40;99.90;;;;;;6211751;23;20012;-85
2022/11/12 07:26:12;;;;;;;26.30;14.35;;;5.50;99.90;;;;;;6184641;23;20043;-85
2022/11/12 07:28:38;;;;;;;;;;;5.60;99.90;;;;;;6211945;23;20502;-84
2022/11/12 07:31:06;;;;;;;67.50;16.63;;;5.70;99.90;;;;;;6211065;23;19988;-84
2022/11/12 07:33:32;;;;;;;63.25;17.42;;;5.70;99.90;;;;;;6184847;23;20503;-84
2022/11/12 07:36:07;;;;;;;78.80;19.58;;;5.80;99.90;;;;;;6210557;23;20325;-85
2022/11/12 07:38:35;;;;;;;70.05;23.85;;;5.80;99.90;;;;;;6184406;23;20024;-85
2022/11/12 07:41:01;;;;;;;101.82;22.85;;;5.90;99.90;;;;;;6183343;23;20019;-84
2022/11/12 07:43:28;;;;;;;98.18;20.65;;;5.90;99.90;;;;;;6211434;23;20021;-83
2022/11/12 07:46:07;;;;;;;102.60;17.98;;;6.00;99.90;;;;;;6183365;23;20022;-84
2022/11/12 07:48:33;;;;;;;149.75;18.10;;;6.00;99.90;;;;;;6183893;23;20095;-83
2022/11/12 07:51:26;;;;;;;104.63;20.42;;;6.00;99.90;;;;;;6210408;23;20369;-84
2022/11/12 07:53:54;;;;;;;41.05;16.92;;;6.10;99.90;;;;;;6210053;23;20016;-83
2022/11/12 07:56:21;;;;;;;37.40;18.58;;;6.10;99.90;;;;;;6211027;23;20056;-84
2022/11/12 07:58:49;;;;;;;64.00;17.45;;;6.20;99.90;;;;;;6183233;23;20012;-84
2022/11/12 08:01:33;;;;;;;96.72;22.58;;;6.20;99.90;;;;;;6183699;23;20016;-83
2022/11/12 08:04:00;;;;;;;108.57;20.98;;;6.30;99.90;;;;;;6211585;23;20013;-84
2022/11/12 08:06:27;;;;;;;149.63;30.10;;;6.30;99.90;;;;;;6184072;23;20023;-84
2022/11/12 08:08:53;;;;;;;76.95;25.67;;;6.40;99.90;;;;;;6159575;23;20020;-84
2022/11/12 08:11:20;;;;;;;155.15;24.85;;;6.40;99.90;;;;;;6159141;23;20012;-83
2022/11/12 08:13:45;;;;;;;177.93;22.52;;;6.50;99.90;;;;;;6184488;23;20032;-84
2022/11/12 08:16:11;;;;;;;84.18;19.30;;;6.50;99.90;;;;;;6210468;23;20008;-84
2022/11/12 08:18:37;;;;;;;146.15;24.13;;;6.50;99.90;;;;;;6211201;23;20017;-84
2022/11/12 08:21:05;;;;;;;117.80;22.83;;;6.50;99.90;;;;;;6183253;23;20016;-82
2022/11/12 08:23:31;;;;;;;65.93;19.83;;;6.50;99.90;;;;;;6183787;23;20021;-86
2022/11/12 08:26:00;;;;;;;45.72;18.80;;;6.60;99.90;;;;;;6210893;23;20367;-84
2022/11/12 08:28:30;;;;;;;233.07;29.45;;;6.60;99.90;;;;;;6182573;23;20016;-84
2022/11/12 08:30:56;;;;;;;76.30;19.52;;;6.70;99.90;;;;;;6183169;23;20044;-83
2022/11/12 08:33:22;;;;;;;49.45;16.90;;;6.70;99.90;;;;;;6211099;23;20464;-82
2022/11/12 08:35:48;;;;;;;51.90;17.73;;;6.80;99.90;;;;;;6209927;23;20017;-83
2022/11/12 08:38:13;;;;;;;48.10;18.35;;;6.80;99.90;;;;;;6184158;23;20051;-84
2022/11/12 08:40:39;;;;;;;47.65;18.30;;;6.90;99.90;;;;;;6183293;23;20372;-86
2022/11/12 08:43:07;;;;;;;66.25;19.67;;;6.90;99.90;;;;;;6158915;23;20024;-85
2022/11/12 08:45:35;;;;;;;50.35;19.27;;;7.00;99.90;;;;;;6182930;23;20008;-85
2022/11/12 08:48:15;;;;;;;59.65;21.17;;;7.10;99.90;;;;;;6184046;23;20076;-85
2022/11/12 08:50:41;;;;;;;43.97;18.85;;;7.10;99.90;;;;;;6158903;23;20306;-85
2022/11/12 08:53:08;;;;;;;51.83;18.55;;;7.20;99.90;;;;;;6209883;23;20067;-85
2022/11/12 08:55:35;;;;;;;48.38;19.98;;;7.20;99.90;;;;;;6182931;23;20024;-85
2022/11/12 08:58:01;;;;;;;50.33;20.35;;;7.30;99.90;;;;;;6210223;23;20016;-85
2022/11/12 09:00:32;;;;;;;124.13;21.27;;;7.30;99.90;;;;;;6183132;23;20009;-85
2022/11/12 09:03:02;;;;;;;54.88;20.30;;;7.40;99.90;;;;;;6182848;23;20012;-85
2022/11/12 09:05:28;;;;;;;75.40;21.75;;;7.50;99.90;;;;;;6183450;23;20017;-85
2022/11/12 09:07:57;;;;;;;49.45;19.63;;;7.50;99.90;;;;;;6183823;23;20016;-85
2022/11/12 09:10:23;;;;;;;40.55;16.90;;;7.60;99.90;;;;;;6183363;23;20051;-85
2022/11/12 09:12:52;;;;;;;127.85;20.70;;;7.60;99.90;;;;;;6212452;23;20016;-85
2022/11/12 09:15:19;;;;;;;47.28;15.57;;;7.70;99.90;;;;;;6185172;23;20057;-85
2022/11/12 09:17:45;;;;;;;50.20;18.48;;;7.70;99.90;;;;;;6210965;23;20016;-85
2022/11/12 09:20:10;;;;;;;52.30;18.25;;;7.70;99.90;;;;;;6184357;23;20052;-84
2022/11/12 09:22:36;;;;;;;47.75;18.23;;;7.80;99.90;;;;;;6211495;23;20048;-84
2022/11/12 09:25:02;;;;;;;47.40;19.15;;;7.80;99.90;;;;;;6211379;23;20332;-84
2022/11/12 09:27:28;;;;;;;86.82;19.63;;;7.80;99.90;;;;;;6184922;23;20019;-85
2022/11/12 09:29:54;;;;;;;82.35;18.58;;;7.90;99.90;;;;;;6185253;23;20016;-84
2022/11/12 09:32:20;;;;;;;119.50;21.42;;;7.90;99.90;;;;;;6183609;23;20016;-85
2022/11/12 09:34:45;;;;;;;102.13;20.40;;;8.00;99.90;;;;;;6184602;23;20465;-80
2022/11/12 09:37:11;;;;;;;60.03;20.15;;;8.00;99.90;;;;;;6184661;23;20016;-80
2022/11/12 09:39:36;;;;;;;160.73;25.25;;;8.00;99.90;;;;;;6183955;23;20020;-80
2022/11/12 09:42:07;;;;;;;48.53;20.25;;;8.00;99.90;;;;;;6211802;23;20071;-81
2022/11/12 09:44:35;;;;;;;48.05;19.35;;;8.00;99.90;;;;;;6184477;23;20016;-80
2022/11/12 09:47:14;;;;;;;106.07;21.20;;;8.10;99.90;;;;;;6184492;23;20111;-81
2022/11/12 09:50:09;;;;;;;76.15;18.90;;;8.10;99.90;;;;;;6159954;23;20009;-81
2022/11/12 09:52:38;;;;;;;97.28;23.45;;;8.10;99.90;;;;;;6184290;23;20465;-84
2022/11/12 09:55:24;;;;;;;71.38;22.30;;;8.10;99.90;;;;;;6211364;23;20020;-84
2022/11/12 09:57:50;;;;;;;46.30;18.80;;;8.10;99.90;;;;;;6211563;23;20330;-84
2022/11/12 10:00:18;;;;;;;61.97;18.77;;;8.20;99.90;;;;;;6184005;23;20019;-82
2022/11/12 10:02:53;;;;;;;145.70;21.70;;;8.20;99.90;;;;;;6210671;23;20036;-85
2022/11/12 10:05:27;;;;;;;63.35;19.23;;;8.30;99.90;;;;;;6158346;23;20060;-81
2022/11/12 10:08:11;;;;;;;;;;;8.30;99.90;;;;;;6184060;23;20511;-80
2022/11/12 10:10:46;;;;;;;28.27;16.63;;;8.20;99.90;;;;;;6211380;23;19990;-80
2022/11/12 10:13:36;;;;;;;57.45;19.80;;;8.40;99.90;;;;;;6211841;23;20012;-80
2022/11/12 10:18:57;;;;;;;39.80;19.48;;;8.30;99.90;;;;;;6211344;23;20016;-80
2022/11/12 10:21:46;;;;;;;37.50;19.70;;;8.40;99.90;;;;;;6210809;23;20013;-79
2022/11/12 10:24:11;;;;;;;34.53;19.33;;;8.40;99.90;;;;;;6184569;23;20459;-80
2022/11/12 10:26:39;;;;;;;34.40;21.23;;;8.40;99.90;;;;;;6184452;23;20017;-79
2022/11/12 10:29:10;;;;;;;50.70;21.95;;;8.50;99.90;;;;;;6183522;23;20063;-80
2022/11/12 10:31:36;;;;;;;50.55;21.77;;;8.50;99.90;;;;;;6183338;23;20404;-80
2022/11/12 10:34:21;;;;;;;56.08;24.02;;;8.60;99.90;;;;;;6181994;23;20048;-80
2022/11/12 10:36:55;;;;;;;50.40;25.17;;;8.60;99.90;;;;;;6182488;23;20012;-79
2022/11/12 10:39:31;;;;;;;46.27;25.40;;;8.60;99.90;;;;;;6210392;23;20661;-79
2022/11/12 10:42:12;;;;;;;38.97;24.23;;;8.60;99.90;;;;;;6182490;23;20096;-80
2022/11/12 10:44:39;;;;;;;38.42;24.00;;;8.60;99.90;;;;;;6183301;23;20025;-81
2022/11/12 10:47:30;;;;;;;45.53;24.63;;;8.70;99.90;;;;;;6158740;23;20016;-81
2022/11/12 10:50:07;;;;;;;40.42;26.80;;;8.70;99.90;;;;;;6184046;23;20055;-82
2022/11/12 10:52:33;;;;;;;38.97;25.58;;;8.80;99.90;;;;;;6182447;23;20063;-83
2022/11/12 10:55:19;;;;;;;43.00;25.60;;;8.80;99.90;;;;;;6210982;23;20008;-83
2022/11/12 10:57:44;;;;;;;42.25;25.80;;;8.90;99.90;;;;;;6183374;23;20055;-81
2022/11/12 11:00:13;;;;;;;44.38;26.17;;;8.90;99.90;;;;;;6209473;23;20330;-81
2022/11/12 11:02:51;;;;;;;42.67;25.05;;;9.00;99.90;;;;;;6182561;23;20012;-81
2022/11/12 11:05:47;;;;;;;44.33;25.00;;;9.00;99.90;;;;;;6210505;23;20062;-81
2022/11/12 11:08:13;;;;;;;46.95;26.77;;;9.10;99.90;;;;;;6183023;23;20012;-81
2022/11/12 11:10:38;;;;;;;36.92;24.35;;;9.10;99.90;;;;;;6183568;23;20349;-81
2022/11/12 11:13:09;;;;;;;38.50;23.27;;;9.20;99.90;;;;;;6210313;23;20020;-81
2022/11/12 11:15:35;;;;;;;37.20;22.73;;;9.40;99.90;;;;;;6183527;23;20039;-81
2022/11/12 11:18:00;;;;;;;32.47;20.60;;;9.20;99.90;;;;;;6183763;23;20104;-81
2022/11/12 11:20:46;;;;;;;28.70;20.02;;;9.20;99.90;;;;;;6209573;23;20044;-81
2022/11/12 11:23:47;;;;;;;31.55;20.45;;;9.20;99.90;;;;;;6210850;23;20051;-82
2022/11/12 11:26:30;;;;;;;29.35;20.13;;;9.30;99.90;;;;;;6114407;23;20037;-81
2022/11/12 11:29:34;;;;;;;29.83;20.42;;;9.30;99.90;;;;;;6182752;23;20016;-82
2022/11/12 11:32:24;;;;;;;30.48;19.58;;;9.30;99.90;;;;;;6209791;23;20040;-86
2022/11/12 11:34:58;;;;;;;25.50;18.17;;;9.50;99.90;;;;;;6184140;23;20519;-85
2022/11/12 11:37:36;;;;;;;;;;;9.70;99.90;;;;;;6184002;23;20028;-91
2022/11/12 11:40:14;;;;;;;27.45;19.02;;;9.90;99.90;;;;;;6211934;23;19912;-91
2022/11/12 11:43:31;;;;;;;25.58;17.58;;;10.00;99.90;;;;;;6160509;23;20449;-92
2022/11/12 11:46:15;;;;;;;25.73;17.98;;;10.20;99.90;;;;;;6184636;23;20028;-89
2022/11/12 11:49:02;;;;;;;24.80;17.03;;;10.30;99.90;;;;;;6206790;23;20083;-87
2022/11/12 11:51:54;;;;;;;21.92;16.30;;;10.30;99.90;;;;;;6183735;23;20016;-87
2022/11/12 11:54:57;;;;;;;24.50;16.50;;;10.40;99.90;;;;;;6182324;23;20013;-87
2022/11/12 11:57:43;;;;;;;22.30;16.67;;;10.40;99.90;;;;;;6182103;23;20031;-86
2022/11/12 12:00:11;;;;;;;24.92;17.13;;;10.50;99.90;;;;;;6211713;23;20329;-86
2022/11/12 12:03:05;;;;;;;23.17;17.40;;;10.60;99.90;;;;;;6185676;23;20376;-87
2022/11/12 12:05:44;;;;;;;19.77;15.82;;;10.70;99.90;;;;;;6208586;23;20347;-87
2022/11/12 12:08:23;;;;;;;18.95;14.95;;;10.70;99.90;;;;;;6211205;23;20044;-87
2022/11/12 12:10:59;;;;;;;19.23;15.20;;;10.80;99.90;;;;;;6185143;23;20052;-85
2022/11/12 12:13:40;;;;;;;18.40;14.43;;;10.80;99.90;;;;;;6182629;23;20024;-83
2022/11/12 12:16:19;;;;;;;18.95;14.05;;;11.00;99.90;;;;;;6160324;23;20443;-86
2022/11/12 12:19:01;;;;;;;19.40;13.23;;;11.10;99.90;;;;;;6212473;23;20016;-88
2022/11/12 12:21:30;;;;;;;17.52;11.98;;;11.30;99.90;;;;;;6212909;23;20325;-86
2022/11/12 12:24:26;;;;;;;17.38;12.75;;;11.40;99.90;;;;;;6185306;23;20456;-86
2022/11/12 12:26:53;;;;;;;;;;;11.60;99.90;;;;;;6181649;23;20150;-83
2022/11/12 12:29:30;;;;;;;16.65;12.45;;;11.60;99.90;;;;;;6208797;23;19947;-86
2022/11/12 12:32:01;;;;;;;19.63;13.05;;;11.60;99.90;;;;;;6184870;23;20031;-86
2022/11/12 12:34:32;;;;;;;15.77;12.75;;;11.60;99.90;;;;;;6210487;23;20340;-85
2022/11/12 12:37:08;;;;;;;20.92;14.27;;;11.90;99.90;;;;;;6184592;23;20456;-85
2022/11/12 12:40:00;;;;;;;18.05;12.30;;;11.60;99.90;;;;;;6185807;23;20098;-85
2022/11/12 12:42:47;;;;;;;18.23;12.82;;;11.60;99.90;;;;;;6209428;23;20022;-85
2022/11/12 12:45:18;;;;;;;16.95;11.95;;;11.60;99.90;;;;;;6212925;23;20009;-85
2022/11/12 12:47:46;;;;;;;16.90;11.93;;;11.60;99.90;;;;;;6213019;23;20445;-85
2022/11/12 12:50:14;;;;;;;18.27;13.13;;;11.60;99.90;;;;;;6187057;23;20372;-85
2022/11/12 12:53:14;;;;;;;15.73;12.55;;;11.50;99.90;;;;;;6188400;23;20449;-84
2022/11/12 12:55:51;;;;;;;15.30;12.25;;;11.50;99.90;;;;;;6213375;23;20087;-84
2022/11/12 12:58:44;;;;;;;15.75;12.52;;;11.50;99.90;;;;;;6188193;23;20017;-83
2022/11/12 13:01:33;;;;;;;16.27;12.40;;;11.50;99.90;;;;;;6188108;23;20400;-84
2022/11/12 13:04:10;;;;;;;17.50;12.48;;;11.40;99.90;;;;;;6187016;23;20078;-85
2022/11/12 13:06:52;;;;;;;18.73;13.13;;;11.40;99.90;;;;;;6187334;23;20048;-85
2022/11/12 13:09:18;;;;;;;19.10;12.70;;;11.40;99.90;;;;;;6187345;23;20111;-84
2022/11/12 13:14:33;;;;;;;21.77;13.30;;;11.30;99.90;;;;;;6212155;23;20020;-84
2022/11/12 13:17:37;;;;;;;16.45;11.95;;;11.20;99.90;;;;;;6162916;23;20353;-84
2022/11/12 13:20:03;;;;;;;19.17;12.57;;;11.20;99.90;;;;;;6180619;23;20024;-83
2022/11/12 13:22:46;;;;;;;17.83;12.85;;;11.10;99.90;;;;;;6213476;23;20008;-83
2022/11/12 13:25:12;;;;;;;16.63;12.93;;;11.10;99.90;;;;;;6212905;23;20096;-83
2022/11/12 13:27:44;;;;;;;16.83;12.60;;;11.00;99.90;;;;;;6211265;23;20083;-84